createdAt,value
2019-02-24T00:00:47.235Z,1034.41
2019-02-24T00:01:47.031Z,1034.40
2019-02-24T00:02:46.945Z,1034.40
2019-02-24T00:03:47.083Z,1034.41
2019-02-24T00:04:46.771Z,1034.36
2019-02-24T00:05:46.689Z,1034.38
2019-02-24T00:06:46.662Z,1034.40
2019-02-24T00:07:46.511Z,1034.42
2019-02-24T00:08:46.438Z,1034.41
2019-02-24T00:09:46.355Z,1034.43
2019-02-24T00:10:46.253Z,1034.47
2019-02-24T00:11:46.171Z,1034.46
2019-02-24T00:12:46.175Z,1034.47
2019-02-24T00:13:46.006Z,1034.46
2019-02-24T00:14:45.904Z,1034.48
2019-02-24T00:15:46.913Z,1034.46
2019-02-24T00:16:45.730Z,1034.48
2019-02-24T00:17:45.643Z,1034.51
2019-02-24T00:18:45.631Z,1034.46
2019-02-24T00:19:45.469Z,1034.50
2019-02-24T00:20:45.413Z,1034.48
2019-02-24T00:21:45.297Z,1034.52
2019-02-24T00:22:45.715Z,1034.53
2019-02-24T00:23:45.139Z,1034.55
2019-02-24T00:24:45.521Z,1034.54
2019-02-24T00:25:44.958Z,1034.55
2019-02-24T00:26:44.938Z,1034.57
2019-02-24T00:27:44.775Z,1034.57
2019-02-24T00:28:44.707Z,1034.60
2019-02-24T00:29:44.649Z,1034.60
2019-02-24T00:30:44.517Z,1034.59
2019-02-24T00:31:44.430Z,1034.58
2019-02-24T00:32:44.361Z,1034.60
2019-02-24T00:33:44.274Z,1034.55
2019-02-24T00:34:44.273Z,1034.59
2019-02-24T00:35:44.083Z,1034.55
2019-02-24T00:36:44.085Z,1034.51
2019-02-24T00:37:43.915Z,1034.49
2019-02-24T00:38:47.301Z,1034.53
2019-02-24T00:39:43.736Z,1034.52
2019-02-24T00:40:43.704Z,1034.54
2019-02-24T00:41:43.563Z,1034.56
2019-02-24T00:42:43.478Z,1034.56
2019-02-24T00:43:43.444Z,1034.54
2019-02-24T00:44:43.304Z,1034.56
2019-02-24T00:45:43.221Z,1034.55
2019-02-24T00:46:43.230Z,1034.50
2019-02-24T00:47:43.040Z,1034.55
2019-02-24T00:48:42.968Z,1034.56
2019-02-24T00:49:42.950Z,1034.53
2019-02-24T00:50:42.781Z,1034.52
2019-02-24T00:51:42.756Z,1034.52
2019-02-24T00:52:42.609Z,1034.53
2019-02-24T00:53:42.596Z,1034.53
2019-02-24T00:54:42.434Z,1034.51
2019-02-24T00:55:42.376Z,1034.49
2019-02-24T00:56:42.260Z,1034.51
2019-02-24T00:57:42.179Z,1034.47
2019-02-24T00:58:42.135Z,1034.46
2019-02-24T00:59:41.998Z,1034.44
2019-02-24T01:00:41.919Z,1034.43
2019-02-24T01:01:41.902Z,1034.39
2019-02-24T01:02:41.735Z,1034.40
2019-02-24T01:03:41.661Z,1034.31
2019-02-24T01:04:41.618Z,1034.31
2019-02-24T01:05:41.474Z,1034.30
2019-02-24T01:06:41.387Z,1034.30
2019-02-24T01:07:41.330Z,1034.28
2019-02-24T01:08:41.229Z,1034.27
2019-02-24T01:09:41.261Z,1034.28
2019-02-24T01:10:41.038Z,1034.22
2019-02-24T01:11:41.048Z,1034.26
2019-02-24T01:12:40.869Z,1034.26
2019-02-24T01:13:40.804Z,1034.26
2019-02-24T01:14:40.763Z,1034.24
2019-02-24T01:15:40.610Z,1034.25
2019-02-24T01:16:40.515Z,1034.28
2019-02-24T01:17:40.473Z,1034.20
2019-02-24T01:18:40.363Z,1034.25
2019-02-24T01:19:40.284Z,1034.26
2019-02-24T01:20:40.170Z,1034.25
2019-02-24T01:21:40.194Z,1034.24
2019-02-24T01:22:39.993Z,1034.27
2019-02-24T01:23:40.039Z,1034.26
2019-02-24T01:24:39.827Z,1034.30
2019-02-24T01:25:39.812Z,1034.28
2019-02-24T01:26:39.645Z,1034.22
2019-02-24T01:27:39.621Z,1034.27
2019-02-24T01:28:39.476Z,1034.24
2019-02-24T01:29:39.463Z,1034.24
2019-02-24T01:30:39.296Z,1034.24
2019-02-24T01:31:39.238Z,1034.21
2019-02-24T01:32:39.129Z,1034.19
2019-02-24T01:33:39.035Z,1034.21
2019-02-24T01:34:38.964Z,1034.21
2019-02-24T01:35:38.959Z,1034.22
2019-02-24T01:36:38.781Z,1034.26
2019-02-24T01:37:38.688Z,1034.21
2019-02-24T01:38:38.596Z,1034.23
2019-02-24T01:39:38.610Z,1034.15
2019-02-24T01:40:38.420Z,1034.17
2019-02-24T01:41:40.434Z,1034.16
2019-02-24T01:42:38.254Z,1034.17
2019-02-24T01:43:38.196Z,1034.16
2019-02-24T01:44:38.089Z,1034.15
2019-02-24T01:45:38.006Z,1034.14
2019-02-24T01:46:37.899Z,1034.12
2019-02-24T01:47:37.921Z,1034.12
2019-02-24T01:48:37.728Z,1034.12
2019-02-24T01:49:37.649Z,1034.12
2019-02-24T01:50:37.632Z,1034.14
2019-02-24T01:51:37.460Z,1034.13
2019-02-24T01:52:37.380Z,1034.13
2019-02-24T01:53:37.347Z,1034.12
2019-02-24T01:54:37.216Z,1034.11
2019-02-24T01:55:37.107Z,1034.12
2019-02-24T01:56:37.059Z,1034.09
2019-02-24T01:57:36.937Z,1034.12
2019-02-24T01:58:36.851Z,1034.11
2019-02-24T01:59:36.806Z,1034.10
2019-02-24T02:00:36.674Z,1034.06
2019-02-24T02:01:36.681Z,1034.08
2019-02-24T02:02:36.500Z,1034.08
2019-02-24T02:03:36.490Z,1034.08
2019-02-24T02:04:36.347Z,1034.04
2019-02-24T02:05:36.301Z,1034.11
2019-02-24T02:06:36.150Z,1034.09
2019-02-24T02:07:36.109Z,1034.09
2019-02-24T02:08:35.974Z,1034.11
2019-02-24T02:09:35.953Z,1034.14
2019-02-24T02:10:35.804Z,1034.11
2019-02-24T02:11:35.725Z,1034.09
2019-02-24T02:12:35.635Z,1034.07
2019-02-24T02:13:35.640Z,1034.07
2019-02-24T02:14:35.471Z,1034.07
2019-02-24T02:15:35.447Z,1034.04
2019-02-24T02:16:35.278Z,1033.99
2019-02-24T02:17:35.258Z,1034.05
2019-02-24T02:18:35.101Z,1034.02
2019-02-24T02:19:35.096Z,1034.02
2019-02-24T02:20:34.923Z,1033.99
2019-02-24T02:21:49.824Z,1034.02
2019-02-24T02:22:34.749Z,1033.99
2019-02-24T02:23:34.685Z,1033.98
2019-02-24T02:24:34.590Z,1033.98
2019-02-24T02:25:34.489Z,1033.98
2019-02-24T02:26:34.499Z,1033.95
2019-02-24T02:27:34.312Z,1033.94
2019-02-24T02:28:34.233Z,1033.95
2019-02-24T02:29:34.245Z,1033.93
2019-02-24T02:30:34.059Z,1033.90
2019-02-24T02:31:33.963Z,1033.90
2019-02-24T02:32:33.926Z,1033.88
2019-02-24T02:33:33.792Z,1033.88
2019-02-24T02:34:33.731Z,1033.89
2019-02-24T02:35:33.643Z,1033.87
2019-02-24T02:36:33.525Z,1033.82
2019-02-24T02:37:33.443Z,1033.84
2019-02-24T02:38:33.456Z,1033.80
2019-02-24T02:39:33.280Z,1033.82
2019-02-24T02:40:33.175Z,1033.84
2019-02-24T02:41:33.171Z,1033.85
2019-02-24T02:42:33.016Z,1033.89
2019-02-24T02:43:32.914Z,1033.88
2019-02-24T02:44:32.913Z,1033.89
2019-02-24T02:45:32.741Z,1033.90
2019-02-24T02:46:32.692Z,1033.90
2019-02-24T02:47:32.569Z,1033.91
2019-02-24T02:48:32.503Z,1033.92
2019-02-24T02:49:32.407Z,1033.94
2019-02-24T02:50:32.304Z,1033.90
2019-02-24T02:51:32.317Z,1033.90
2019-02-24T02:52:32.129Z,1033.93
2019-02-24T02:53:32.051Z,1033.92
2019-02-24T02:54:32.063Z,1033.92
2019-02-24T02:55:31.869Z,1033.93
2019-02-24T02:56:31.841Z,1033.92
2019-02-24T02:57:31.690Z,1033.90
2019-02-24T02:58:31.650Z,1033.90
2019-02-24T02:59:31.520Z,1033.92
2019-02-24T03:00:31.501Z,1033.89
2019-02-24T03:01:31.342Z,1033.90
2019-02-24T03:02:32.291Z,1033.94
2019-02-24T03:03:31.166Z,1033.98
2019-02-24T03:04:31.181Z,1033.97
2019-02-24T03:05:31.007Z,1033.96
2019-02-24T03:06:30.989Z,1033.94
2019-02-24T03:07:30.815Z,1033.97
2019-02-24T03:08:30.796Z,1033.97
2019-02-24T03:09:30.663Z,1033.99
2019-02-24T03:10:30.639Z,1033.93
2019-02-24T03:11:30.467Z,1034.00
2019-02-24T03:12:30.412Z,1034.05
2019-02-24T03:13:30.292Z,1034.06
2019-02-24T03:14:30.208Z,1034.08
2019-02-24T03:15:30.167Z,1034.13
2019-02-24T03:16:30.031Z,1034.10
2019-02-24T03:17:29.947Z,1034.11
2019-02-24T03:18:29.961Z,1034.14
2019-02-24T03:19:29.768Z,1034.11
2019-02-24T03:20:29.695Z,1034.13
2019-02-24T03:21:29.657Z,1034.16
2019-02-24T03:22:29.506Z,1034.11
2019-02-24T03:23:29.416Z,1034.11
2019-02-24T03:24:31.430Z,1034.11
2019-02-24T03:25:29.255Z,1034.07
2019-02-24T03:26:29.151Z,1034.12
2019-02-24T03:27:29.083Z,1034.12
2019-02-24T03:28:28.977Z,1034.14
2019-02-24T03:29:28.888Z,1034.15
2019-02-24T03:30:28.839Z,1034.16
2019-02-24T03:31:28.716Z,1034.20
2019-02-24T03:32:28.718Z,1034.20
2019-02-24T03:33:28.542Z,1034.16
2019-02-24T03:34:28.516Z,1034.21
2019-02-24T03:35:28.378Z,1034.17
2019-02-24T03:36:28.275Z,1034.18
2019-02-24T03:37:28.251Z,1034.14
2019-02-24T03:38:28.101Z,1034.14
2019-02-24T03:39:28.010Z,1034.20
2019-02-24T03:40:27.976Z,1034.18
2019-02-24T03:41:27.835Z,1034.15
2019-02-24T03:42:27.748Z,1034.12
2019-02-24T03:43:27.766Z,1034.09
2019-02-24T03:44:27.571Z,1034.06
2019-02-24T03:45:27.500Z,1034.08
2019-02-24T03:46:27.477Z,1034.06
2019-02-24T03:47:27.310Z,1033.98
2019-02-24T03:48:27.292Z,1034.00
2019-02-24T03:49:27.140Z,1034.00
2019-02-24T03:50:27.059Z,1033.99
2019-02-24T03:51:27.001Z,1033.99
2019-02-24T03:52:26.907Z,1034.01
2019-02-24T03:53:26.784Z,1034.06
2019-02-24T03:54:26.713Z,1034.08
2019-02-24T03:55:26.619Z,1034.10
2019-02-24T03:56:26.622Z,1034.13
2019-02-24T03:57:26.442Z,1034.11
2019-02-24T03:58:27.455Z,1034.19
2019-02-24T03:59:26.253Z,1034.19
2019-02-24T04:00:26.183Z,1034.15
2019-02-24T04:01:26.147Z,1034.18
2019-02-24T04:02:25.992Z,1034.19
2019-02-24T04:03:25.903Z,1034.18
2019-02-24T04:04:32.818Z,1034.22
2019-02-24T04:05:25.741Z,1034.21
2019-02-24T04:06:25.641Z,1034.22
2019-02-24T04:07:25.557Z,1034.22
2019-02-24T04:08:25.460Z,1034.27
2019-02-24T04:09:25.379Z,1034.28
2019-02-24T04:10:25.316Z,1034.26
2019-02-24T04:11:25.197Z,1034.25
2019-02-24T04:12:25.162Z,1034.29
2019-02-24T04:13:25.098Z,1034.32
2019-02-24T04:14:24.938Z,1034.31
2019-02-24T04:15:24.859Z,1034.35
2019-02-24T04:16:24.814Z,1034.34
2019-02-24T04:17:24.669Z,1034.33
2019-02-24T04:18:24.581Z,1034.36
2019-02-24T04:19:24.530Z,1034.35
2019-02-24T04:20:24.424Z,1034.31
2019-02-24T04:21:24.320Z,1034.29
2019-02-24T04:22:24.242Z,1034.29
2019-02-24T04:23:24.138Z,1034.22
2019-02-24T04:24:24.055Z,1034.27
2019-02-24T04:25:24.112Z,1034.23
2019-02-24T04:26:23.872Z,1034.25
2019-02-24T04:27:25.817Z,1034.25
2019-02-24T04:28:23.715Z,1034.24
2019-02-24T04:29:25.217Z,1034.20
2019-02-24T04:30:23.554Z,1034.26
2019-02-24T04:31:23.492Z,1034.29
2019-02-24T04:32:23.348Z,1034.30
2019-02-24T04:33:23.294Z,1034.33
2019-02-24T04:34:23.169Z,1034.30
2019-02-24T04:35:23.111Z,1034.31
2019-02-24T04:36:23.017Z,1034.34
2019-02-24T04:37:23.015Z,1034.33
2019-02-24T04:38:22.822Z,1034.38
2019-02-24T04:39:22.825Z,1034.39
2019-02-24T04:40:22.637Z,1034.37
2019-02-24T04:41:22.666Z,1034.41
2019-02-24T04:42:22.468Z,1034.39
2019-02-24T04:43:22.442Z,1034.40
2019-02-24T04:44:22.292Z,1034.38
2019-02-24T04:45:22.253Z,1034.41
2019-02-24T04:46:22.125Z,1034.37
2019-02-24T04:47:22.060Z,1034.39
2019-02-24T04:48:21.936Z,1034.40
2019-02-24T04:49:28.831Z,1034.39
2019-02-24T04:50:21.757Z,1034.43
2019-02-24T04:51:21.715Z,1034.43
2019-02-24T04:52:21.583Z,1034.47
2019-02-24T04:53:21.590Z,1034.45
2019-02-24T04:54:21.404Z,1034.45
2019-02-24T04:55:23.344Z,1034.47
2019-02-24T04:56:21.251Z,1034.48
2019-02-24T04:57:21.215Z,1034.45
2019-02-24T04:58:21.053Z,1034.40
2019-02-24T04:59:21.020Z,1034.42
2019-02-24T05:00:20.874Z,1034.39
2019-02-24T05:01:20.856Z,1034.43
2019-02-24T05:02:20.705Z,1034.41
2019-02-24T05:03:20.635Z,1034.40
2019-02-24T05:04:20.517Z,1034.41
2019-02-24T05:05:20.544Z,1034.39
2019-02-24T05:06:20.361Z,1034.35
2019-02-24T05:07:20.352Z,1034.37
2019-02-24T05:08:20.169Z,1034.36
2019-02-24T05:09:20.161Z,1034.37
2019-02-24T05:10:19.997Z,1034.39
2019-02-24T05:11:19.924Z,1034.33
2019-02-24T05:12:26.838Z,1034.39
2019-02-24T05:13:19.733Z,1034.30
2019-02-24T05:14:19.641Z,1034.37
2019-02-24T05:15:19.590Z,1034.42
2019-02-24T05:16:19.494Z,1034.36
2019-02-24T05:17:19.398Z,1034.36
2019-02-24T05:18:19.286Z,1034.33
2019-02-24T05:19:19.210Z,1034.39
2019-02-24T05:20:19.112Z,1034.38
2019-02-24T05:21:19.052Z,1034.39
2019-02-24T05:22:18.946Z,1034.35
2019-02-24T05:23:18.845Z,1034.37
2019-02-24T05:24:18.834Z,1034.34
2019-02-24T05:25:18.666Z,1034.32
2019-02-24T05:26:18.592Z,1034.33
2019-02-24T05:27:18.552Z,1034.30
2019-02-24T05:28:18.405Z,1034.32
2019-02-24T05:29:20.341Z,1034.30
2019-02-24T05:30:18.262Z,1034.29
2019-02-24T05:31:18.151Z,1034.29
2019-02-24T05:32:18.046Z,1034.33
2019-02-24T05:33:17.975Z,1034.33
2019-02-24T05:34:17.873Z,1034.31
2019-02-24T05:35:17.777Z,1034.32
2019-02-24T05:36:17.726Z,1034.35
2019-02-24T05:37:17.604Z,1034.32
2019-02-24T05:38:17.601Z,1034.32
2019-02-24T05:39:17.428Z,1034.31
2019-02-24T05:40:18.442Z,1034.28
2019-02-24T05:41:17.265Z,1034.30
2019-02-24T05:42:17.167Z,1034.32
2019-02-24T05:43:17.121Z,1034.29
2019-02-24T05:44:16.986Z,1034.34
2019-02-24T05:45:16.904Z,1034.32
2019-02-24T05:46:16.824Z,1034.32
2019-02-24T05:47:16.734Z,1034.32
2019-02-24T05:48:16.756Z,1034.34
2019-02-24T05:49:16.550Z,1034.32
2019-02-24T05:50:16.563Z,1034.28
2019-02-24T05:51:16.380Z,1034.27
2019-02-24T05:52:22.836Z,1034.29
2019-02-24T05:53:16.188Z,1034.23
2019-02-24T05:54:16.179Z,1034.25
2019-02-24T05:55:16.013Z,1034.23
2019-02-24T05:56:16.018Z,1034.24
2019-02-24T05:57:15.838Z,1034.28
2019-02-24T05:58:15.754Z,1034.24
2019-02-24T05:59:15.659Z,1034.23
2019-02-24T06:00:15.605Z,1034.23
2019-02-24T06:01:15.512Z,1034.27
2019-02-24T06:02:15.416Z,1034.25
2019-02-24T06:03:15.313Z,1034.24
2019-02-24T06:04:15.324Z,1034.16
2019-02-24T06:05:15.129Z,1034.20
2019-02-24T06:06:15.134Z,1034.18
2019-02-24T06:07:14.969Z,1034.17
2019-02-24T06:08:14.864Z,1034.22
2019-02-24T06:09:14.852Z,1034.19
2019-02-24T06:10:14.688Z,1034.21
2019-02-24T06:11:14.598Z,1034.20
2019-02-24T06:12:14.526Z,1034.23
2019-02-24T06:13:14.466Z,1034.23
2019-02-24T06:14:14.358Z,1034.25
2019-02-24T06:15:14.247Z,1034.20
2019-02-24T06:16:14.153Z,1034.27
2019-02-24T06:17:14.112Z,1034.20
2019-02-24T06:18:13.987Z,1034.24
2019-02-24T06:19:13.992Z,1034.22
2019-02-24T06:20:13.806Z,1034.25
2019-02-24T06:21:13.804Z,1034.26
2019-02-24T06:22:13.646Z,1034.23
2019-02-24T06:23:13.544Z,1034.28
2019-02-24T06:24:13.452Z,1034.20
2019-02-24T06:25:15.470Z,1034.25
2019-02-24T06:26:13.277Z,1034.21
2019-02-24T06:27:13.206Z,1034.25
2019-02-24T06:28:13.102Z,1034.27
2019-02-24T06:29:13.043Z,1034.23
2019-02-24T06:30:12.925Z,1034.24
2019-02-24T06:31:20.842Z,1034.26
2019-02-24T06:32:12.768Z,1034.26
2019-02-24T06:33:12.761Z,1034.25
2019-02-24T06:34:12.572Z,1034.30
2019-02-24T06:35:12.570Z,1034.26
2019-02-24T06:36:12.397Z,1034.26
2019-02-24T06:37:14.362Z,1034.32
2019-02-24T06:38:12.221Z,1034.29
2019-02-24T06:39:12.189Z,1034.27
2019-02-24T06:40:12.045Z,1034.30
2019-02-24T06:41:11.995Z,1034.33
2019-02-24T06:42:11.889Z,1034.30
2019-02-24T06:43:11.807Z,1034.33
2019-02-24T06:44:11.694Z,1034.32
2019-02-24T06:45:11.727Z,1034.38
2019-02-24T06:46:11.518Z,1034.30
2019-02-24T06:47:11.561Z,1034.37
2019-02-24T06:48:11.346Z,1034.38
2019-02-24T06:49:11.337Z,1034.37
2019-02-24T06:50:11.164Z,1034.40
2019-02-24T06:51:11.145Z,1034.37
2019-02-24T06:52:11.036Z,1034.39
2019-02-24T06:53:10.954Z,1034.42
2019-02-24T06:54:10.815Z,1034.32
2019-02-24T06:55:10.764Z,1034.34
2019-02-24T06:56:10.646Z,1034.33
2019-02-24T06:57:10.565Z,1034.30
2019-02-24T06:58:10.577Z,1034.33
2019-02-24T06:59:10.375Z,1034.32
2019-02-24T07:00:14.226Z,1034.33
2019-02-24T07:01:10.213Z,1034.36
2019-02-24T07:02:10.138Z,1034.35
2019-02-24T07:03:10.024Z,1034.38
2019-02-24T07:04:10.001Z,1034.41
2019-02-24T07:05:09.853Z,1034.46
2019-02-24T07:06:09.762Z,1034.47
2019-02-24T07:07:09.752Z,1034.52
2019-02-24T07:08:09.582Z,1034.51
2019-02-24T07:09:09.524Z,1034.53
2019-02-24T07:10:09.412Z,1034.55
2019-02-24T07:11:17.322Z,1034.53
2019-02-24T07:12:09.251Z,1034.56
2019-02-24T07:13:09.251Z,1034.57
2019-02-24T07:14:09.061Z,1034.57
2019-02-24T07:15:09.052Z,1034.56
2019-02-24T07:16:08.886Z,1034.58
2019-02-24T07:17:10.848Z,1034.60
2019-02-24T07:18:08.716Z,1034.67
2019-02-24T07:19:08.625Z,1034.66
2019-02-24T07:20:08.580Z,1034.70
2019-02-24T07:21:08.450Z,1034.74
2019-02-24T07:22:08.379Z,1034.76
2019-02-24T07:23:09.314Z,1034.69
2019-02-24T07:24:08.191Z,1034.72
2019-02-24T07:25:08.201Z,1034.71
2019-02-24T07:26:08.016Z,1034.74
2019-02-24T07:27:08.048Z,1034.74
2019-02-24T07:28:07.847Z,1034.78
2019-02-24T07:29:07.821Z,1034.75
2019-02-24T07:30:07.669Z,1034.77
2019-02-24T07:31:07.631Z,1034.78
2019-02-24T07:32:07.530Z,1034.80
2019-02-24T07:33:07.420Z,1034.83
2019-02-24T07:34:07.342Z,1034.84
2019-02-24T07:35:07.236Z,1034.76
2019-02-24T07:36:07.150Z,1034.77
2019-02-24T07:37:12.924Z,1034.77
2019-02-24T07:38:06.998Z,1034.78
2019-02-24T07:39:06.891Z,1034.73
2019-02-24T07:40:13.322Z,1034.75
2019-02-24T07:41:06.723Z,1034.77
2019-02-24T07:42:06.681Z,1034.73
2019-02-24T07:43:06.568Z,1034.72
2019-02-24T07:44:06.468Z,1034.70
2019-02-24T07:45:06.396Z,1034.72
2019-02-24T07:46:06.301Z,1034.73
2019-02-24T07:47:06.208Z,1034.70
2019-02-24T07:48:06.244Z,1034.68
2019-02-24T07:49:06.045Z,1034.65
2019-02-24T07:50:05.954Z,1034.64
2019-02-24T07:51:06.951Z,1034.65
2019-02-24T07:52:05.780Z,1034.66
2019-02-24T07:53:05.714Z,1034.64
2019-02-24T07:54:05.636Z,1034.63
2019-02-24T07:55:05.532Z,1034.60
2019-02-24T07:56:05.447Z,1034.57
2019-02-24T07:57:06.476Z,1034.56
2019-02-24T07:58:05.294Z,1034.56
2019-02-24T07:59:05.218Z,1034.52
2019-02-24T08:00:05.175Z,1034.47
2019-02-24T08:01:05.028Z,1034.44
2019-02-24T08:02:04.945Z,1034.46
2019-02-24T08:03:10.342Z,1034.42
2019-02-24T08:04:04.782Z,1034.40
2019-02-24T08:05:04.695Z,1034.45
2019-02-24T08:06:04.695Z,1034.48
2019-02-24T08:07:04.536Z,1034.47
2019-02-24T08:08:04.476Z,1034.49
2019-02-24T08:09:11.317Z,1034.51
2019-02-24T08:10:04.282Z,1034.50
2019-02-24T08:11:04.198Z,1034.52
2019-02-24T08:12:04.225Z,1034.57
2019-02-24T08:13:04.045Z,1034.64
2019-02-24T08:14:03.994Z,1034.61
2019-02-24T08:15:03.938Z,1034.67
2019-02-24T08:16:03.789Z,1034.66
2019-02-24T08:17:03.750Z,1034.69
2019-02-24T08:18:03.626Z,1034.76
2019-02-24T08:19:03.556Z,1034.73
2019-02-24T08:20:03.564Z,1034.75
2019-02-24T08:21:03.455Z,1034.80
2019-02-24T08:22:03.295Z,1034.84
2019-02-24T08:23:03.277Z,1034.87
2019-02-24T08:24:03.146Z,1034.88
2019-02-24T08:25:03.087Z,1034.93
2019-02-24T08:26:02.967Z,1034.99
2019-02-24T08:27:02.999Z,1034.97
2019-02-24T08:28:02.808Z,1035.06
2019-02-24T08:29:02.839Z,1035.08
2019-02-24T08:30:02.706Z,1035.05
2019-02-24T08:31:02.613Z,1035.10
2019-02-24T08:32:02.483Z,1035.09
2019-02-24T08:33:02.425Z,1035.15
2019-02-24T08:34:02.333Z,1035.12
2019-02-24T08:35:02.235Z,1035.20
2019-02-24T08:36:02.241Z,1035.23
2019-02-24T08:37:02.076Z,1035.20
2019-02-24T08:38:01.995Z,1035.29
2019-02-24T08:39:01.986Z,1035.36
2019-02-24T08:40:01.830Z,1035.38
2019-02-24T08:41:01.752Z,1035.35
2019-02-24T08:42:01.771Z,1035.38
2019-02-24T08:43:01.589Z,1035.42
2019-02-24T08:44:01.509Z,1035.47
2019-02-24T08:45:01.520Z,1035.49
2019-02-24T08:46:01.347Z,1035.45
2019-02-24T08:47:01.266Z,1035.46
2019-02-24T08:48:01.192Z,1035.57
2019-02-24T08:49:01.104Z,1035.53
2019-02-24T08:50:01.041Z,1035.49
2019-02-24T08:51:01.030Z,1035.44
2019-02-24T08:52:00.864Z,1035.46
2019-02-24T08:53:00.787Z,1035.45
2019-02-24T08:54:00.727Z,1035.49
2019-02-24T08:55:00.648Z,1035.44
2019-02-24T08:56:00.638Z,1035.47
2019-02-24T08:57:00.466Z,1035.50
2019-02-24T08:58:02.495Z,1035.56
2019-02-24T08:59:00.306Z,1035.57
2019-02-24T09:00:00.289Z,1035.63
2019-02-24T09:01:00.145Z,1035.66
2019-02-24T09:02:00.177Z,1035.63
2019-02-24T09:02:59.986Z,1035.67
2019-02-24T09:03:59.908Z,1035.65
2019-02-24T09:05:01.863Z,1035.68
2019-02-24T09:05:59.746Z,1035.72
2019-02-24T09:06:59.665Z,1035.81
2019-02-24T09:07:59.705Z,1035.86
2019-02-24T09:08:59.507Z,1035.95
2019-02-24T09:09:59.447Z,1035.86
2019-02-24T09:11:06.386Z,1035.85
2019-02-24T09:11:59.267Z,1035.85
2019-02-24T09:12:59.188Z,1035.91
2019-02-24T09:13:59.131Z,1035.95
2019-02-24T09:14:59.048Z,1035.94
2019-02-24T09:15:59.080Z,1035.99
2019-02-24T09:16:58.864Z,1035.96
2019-02-24T09:17:58.850Z,1035.99
2019-02-24T09:18:58.709Z,1036.02
2019-02-24T09:19:58.649Z,1035.96
2019-02-24T09:20:58.666Z,1036.00
2019-02-24T09:21:58.473Z,1036.00
2019-02-24T09:22:58.391Z,1036.04
2019-02-24T09:23:58.376Z,1035.98
2019-02-24T09:24:58.248Z,1035.91
2019-02-24T09:25:58.198Z,1035.95
2019-02-24T09:26:58.070Z,1036.02
2019-02-24T09:27:58.106Z,1036.01
2019-02-24T09:28:57.911Z,1036.02
2019-02-24T09:29:57.846Z,1036.02
2019-02-24T09:31:00.821Z,1036.04
2019-02-24T09:31:57.672Z,1036.10
2019-02-24T09:32:57.597Z,1036.11
2019-02-24T09:33:57.625Z,1036.17
2019-02-24T09:34:57.446Z,1036.16
2019-02-24T09:35:57.351Z,1036.22
2019-02-24T09:37:01.479Z,1036.30
2019-02-24T09:37:57.198Z,1036.30
2019-02-24T09:38:57.117Z,1036.35
2019-02-24T09:39:57.088Z,1036.37
2019-02-24T09:40:56.958Z,1036.41
2019-02-24T09:41:56.878Z,1036.39
2019-02-24T09:42:56.873Z,1036.37
2019-02-24T09:43:56.722Z,1036.40
2019-02-24T09:44:56.646Z,1036.40
2019-02-24T09:45:56.620Z,1036.40
2019-02-24T09:46:56.484Z,1036.41
2019-02-24T09:47:56.502Z,1036.44
2019-02-24T09:48:57.336Z,1036.42
2019-02-24T09:49:56.262Z,1036.46
2019-02-24T09:50:56.184Z,1036.42
2019-02-24T09:51:56.271Z,1036.37
2019-02-24T09:52:56.012Z,1036.40
2019-02-24T09:53:55.935Z,1036.36
2019-02-24T09:54:55.877Z,1036.33
2019-02-24T09:55:55.795Z,1036.32
2019-02-24T09:56:55.889Z,1036.34
2019-02-24T09:57:55.621Z,1036.36
2019-02-24T09:58:55.699Z,1036.41
2019-02-24T09:59:55.463Z,1036.41
2019-02-24T10:00:55.423Z,1036.52
2019-02-24T10:01:55.520Z,1036.54
2019-02-24T10:02:55.229Z,1036.63
2019-02-24T10:03:55.155Z,1036.64
2019-02-24T10:04:55.123Z,1036.69
2019-02-24T10:05:55.015Z,1036.80
2019-02-24T10:06:54.920Z,1036.83
2019-02-24T10:07:54.939Z,1036.98
2019-02-24T10:08:54.760Z,1036.98
2019-02-24T10:09:54.681Z,1037.01
2019-02-24T10:10:54.787Z,1037.09
2019-02-24T10:11:54.524Z,1037.14
2019-02-24T10:12:54.562Z,1037.14
2019-02-24T10:13:54.372Z,1037.18
2019-02-24T10:14:54.371Z,1037.11
2019-02-24T10:15:54.234Z,1036.92
2019-02-24T10:16:54.183Z,1036.86
2019-02-24T10:17:54.075Z,1036.89
2019-02-24T10:18:54.192Z,1036.95
2019-02-24T10:19:53.912Z,1037.02
2019-02-24T10:20:54.041Z,1036.98
2019-02-24T10:21:53.749Z,1037.02
2019-02-24T10:22:53.810Z,1037.08
2019-02-24T10:23:53.602Z,1037.10
2019-02-24T10:24:53.516Z,1037.14
2019-02-24T10:25:53.660Z,1037.26
2019-02-24T10:26:53.370Z,1037.46
2019-02-24T10:27:53.290Z,1037.39
2019-02-24T10:28:53.240Z,1037.32
2019-02-24T10:29:53.139Z,1037.31
2019-02-24T10:30:53.077Z,1037.26
2019-02-24T10:31:53.054Z,1037.35
2019-02-24T10:32:52.900Z,1037.35
2019-02-24T10:33:52.820Z,1037.41
2019-02-24T10:34:52.890Z,1037.37
2019-02-24T10:35:52.682Z,1037.36
2019-02-24T10:36:52.592Z,1037.43
2019-02-24T10:37:52.687Z,1037.34
2019-02-24T10:38:52.445Z,1037.32
2019-02-24T10:39:52.352Z,1037.37
2019-02-24T10:40:52.326Z,1037.37
2019-02-24T10:41:53.681Z,1037.34
2019-02-24T10:42:52.125Z,1037.18
2019-02-24T10:43:52.107Z,1037.22
2019-02-24T10:44:51.977Z,1037.22
2019-02-24T10:45:51.908Z,1037.24
2019-02-24T10:46:51.921Z,1037.20
2019-02-24T10:47:51.740Z,1037.20
2019-02-24T10:48:51.728Z,1037.25
2019-02-24T10:49:51.594Z,1037.25
2019-02-24T10:50:51.531Z,1037.15
2019-02-24T10:51:51.434Z,1037.17
2019-02-24T10:52:51.358Z,1037.14
2019-02-24T10:53:51.275Z,1037.08
2019-02-24T10:55:00.024Z,1037.04
2019-02-24T10:55:51.138Z,1036.99
2019-02-24T10:56:51.166Z,1036.94
2019-02-24T10:57:50.967Z,1036.91
2019-02-24T10:58:50.980Z,1036.94
2019-02-24T10:59:50.813Z,1036.88
2019-02-24T11:00:50.888Z,1036.82
2019-02-24T11:01:50.655Z,1036.74
2019-02-24T11:02:50.865Z,1036.74
2019-02-24T11:03:50.501Z,1036.72
2019-02-24T11:04:50.676Z,1036.68
2019-02-24T11:05:50.365Z,1036.70
2019-02-24T11:06:52.531Z,1036.69
2019-02-24T11:07:50.201Z,1036.72
2019-02-24T11:08:50.190Z,1036.59
2019-02-24T11:09:50.040Z,1036.56
2019-02-24T11:10:49.996Z,1036.50
2019-02-24T11:11:49.904Z,1036.53
2019-02-24T11:12:49.809Z,1036.53
2019-02-24T11:13:49.730Z,1036.54
2019-02-24T11:14:49.722Z,1036.51
2019-02-24T11:15:49.581Z,1036.55
2019-02-24T11:16:49.517Z,1036.52
2019-02-24T11:17:56.393Z,1036.51
2019-02-24T11:18:49.356Z,1036.52
2019-02-24T11:19:49.265Z,1036.53
2019-02-24T11:20:49.250Z,1036.54
2019-02-24T11:21:49.128Z,1036.51
2019-02-24T11:22:49.034Z,1036.47
2019-02-24T11:23:49.065Z,1036.51
2019-02-24T11:24:48.879Z,1036.45
2019-02-24T11:25:48.803Z,1036.42
2019-02-24T11:26:48.809Z,1036.47
2019-02-24T11:27:48.653Z,1036.46
2019-02-24T11:28:48.591Z,1036.46
2019-02-24T11:29:48.495Z,1036.44
2019-02-24T11:30:48.415Z,1036.46
2019-02-24T11:31:48.434Z,1036.37
2019-02-24T11:32:48.261Z,1036.29
2019-02-24T11:33:48.184Z,1036.28
2019-02-24T11:34:48.123Z,1036.29
2019-02-24T11:35:48.030Z,1036.29
2019-02-24T11:36:47.965Z,1036.32
2019-02-24T11:37:47.936Z,1036.31
2019-02-24T11:38:47.796Z,1036.30
2019-02-24T11:39:47.718Z,1036.27
2019-02-24T11:40:47.752Z,1036.27
2019-02-24T11:41:47.580Z,1036.24
2019-02-24T11:42:47.565Z,1036.21
2019-02-24T11:43:47.412Z,1036.21
2019-02-24T11:44:47.372Z,1036.11
2019-02-24T11:45:47.256Z,1036.07
2019-02-24T11:46:47.243Z,1036.06
2019-02-24T11:47:47.191Z,1035.98
2019-02-24T11:48:47.025Z,1035.96
2019-02-24T11:49:46.946Z,1036.03
2019-02-24T11:50:46.900Z,1036.01
2019-02-24T11:51:46.806Z,1036.04
2019-02-24T11:52:46.815Z,1035.98
2019-02-24T11:53:46.647Z,1035.89
2019-02-24T11:54:46.623Z,1035.89
2019-02-24T11:55:46.485Z,1035.88
2019-02-24T11:56:46.463Z,1035.89
2019-02-24T11:57:46.369Z,1035.88
2019-02-24T11:58:46.343Z,1035.83
2019-02-24T11:59:46.179Z,1035.84
2019-02-24T12:00:46.153Z,1035.83
2019-02-24T12:01:47.813Z,1035.83
2019-02-24T12:02:46.078Z,1035.87
2019-02-24T12:03:45.868Z,1035.76
2019-02-24T12:04:45.877Z,1035.74